Time;durP1;ratioP1;P1;durP2;ratioP2;P2;SDS_P1;SDS_P2;PMS_P1;PMS_P2;Temp;Humidity;BMP_temperature;BMP_pressure;BME280_temperature;BME280_humidity;BME280_pressure;Samples;Min_cycle;Max_cycle;Signal;HPM_P1;HPM_P2
2022/10/26 00:00:08;;;;;;;20.20;10.98;;;;;;;;;;4990248;28;20026;-79
2022/10/26 00:02:33;;;;;;;21.13;10.95;;;;;;;;;;4972607;28;20034;-79
2022/10/26 00:04:59;;;;;;;35.83;11.05;;;;;;;;;;4972419;28;20026;-79
2022/10/26 00:07:24;;;;;;;22.10;11.75;;;;;;;;;;4972438;28;20056;-79
2022/10/26 00:09:50;;;;;;;28.45;12.15;;;;;;;;;;4975673;28;20058;-79
2022/10/26 00:12:15;;;;;;;20.10;11.23;;;;;;;;;;4993653;28;20390;-79
2022/10/26 00:14:41;;;;;;;24.30;11.55;;;;;;;;;;4975953;28;20034;-79
2022/10/26 00:17:07;;;;;;;22.38;11.10;;;;;;;;;;4976179;28;20380;-79
2022/10/26 00:19:33;;;;;;;22.60;10.68;;;;;;;;;;4976116;28;20117;-79
2022/10/26 00:21:59;;;;;;;21.23;10.90;;;;;;;;;;4975754;28;20117;-80
2022/10/26 00:24:25;;;;;;;25.42;11.95;;;;;;;;;;4993511;28;20101;-80
2022/10/26 00:26:50;;;;;;;21.65;11.48;;;;;;;;;;4992997;28;20599;-81
2022/10/26 00:29:17;;;;;;;21.90;10.77;;;;;;;;;;4993407;28;20054;-80
2022/10/26 00:31:43;;;;;;;19.13;11.68;;;;;;;;;;4975770;28;20042;-81
2022/10/26 00:34:10;;;;;;;21.50;11.48;;;;;;;;;;4960848;28;20034;-80
2022/10/26 00:36:35;;;;;;;20.90;11.68;;;;;;;;;;4976613;28;20041;-80
2022/10/26 00:39:01;;;;;;;19.55;11.52;;;;;;;;;;4993260;28;20038;-80
2022/10/26 00:41:30;;;;;;;20.42;11.15;;;;;;;;;;4993120;28;20088;-80
2022/10/26 00:43:56;;;;;;;21.27;11.32;;;;;;;;;;4975586;28;20034;-80
2022/10/26 00:46:26;;;;;;;23.92;11.27;;;;;;;;;;4993134;28;20038;-79
2022/10/26 00:48:57;;;;;;;20.42;11.02;;;;;;;;;;4975171;28;20038;-79
2022/10/26 00:51:37;;;;;;;20.23;10.73;;;;;;;;;;4993069;28;20026;-80
2022/10/26 00:54:08;;;;;;;20.10;10.68;;;;;;;;;;4975410;28;20026;-79
2022/10/26 00:56:33;;;;;;;18.48;9.80;;;;;;;;;;4975253;28;20049;-80
2022/10/26 00:59:02;;;;;;;19.92;10.65;;;;;;;;;;4975450;28;20057;-80
2022/10/26 01:01:31;;;;;;;21.45;9.73;;;;;;;;;;4976307;28;20026;-79
2022/10/26 01:03:58;;;;;;;17.48;10.20;;;;;;;;;;4976611;28;21039;-80
2022/10/26 01:06:24;;;;;;;18.02;9.52;;;;;;;;;;4994531;28;20063;-80
2022/10/26 01:08:49;;;;;;;18.60;9.65;;;;;;;;;;4975391;28;20057;-80
2022/10/26 01:11:15;;;;;;;20.42;10.05;;;;;;;;;;4975357;28;20128;-81
2022/10/26 01:13:43;;;;;;;19.52;9.90;;;;;;;;;;4992726;28;20370;-80
2022/10/26 01:16:09;;;;;;;18.13;10.10;;;;;;;;;;4992612;28;20437;-79
2022/10/26 01:19:10;;;;;;;16.38;9.52;;;;;;;;;;4974907;28;20034;-79
2022/10/26 01:21:40;;;;;;;17.95;10.02;;;;;;;;;;4975007;28;20088;-80
2022/10/26 01:24:09;;;;;;;16.77;9.00;;;;;;;;;;4974690;28;20072;-81
2022/10/26 01:26:56;;;;;;;18.00;9.82;;;;;;;;;;4974430;28;20082;-81
2022/10/26 01:29:55;;;;;;;17.52;8.98;;;;;;;;;;4992477;28;20162;-80
2022/10/26 01:32:36;;;;;;;19.75;9.57;;;;;;;;;;4974664;28;20034;-79
2022/10/26 01:35:11;;;;;;;18.75;9.35;;;;;;;;;;4991947;28;20022;-79
2022/10/26 01:37:47;;;;;;;16.83;9.10;;;;;;;;;;4974485;28;20126;-79
2022/10/26 01:40:44;;;;;;;17.77;8.77;;;;;;;;;;4974790;28;20121;-79
2022/10/26 01:43:12;;;;;;;13.55;8.13;;;;;;;;;;4973306;28;20080;-80
2022/10/26 01:45:42;;;;;;;16.13;9.67;;;;;;;;;;4992148;28;20026;-80
2022/10/26 01:48:12;;;;;;;13.83;9.00;;;;;;;;;;4958464;28;20030;-80
2022/10/26 01:50:40;;;;;;;17.40;10.00;;;;;;;;;;4974675;28;20024;-79
2022/10/26 01:53:06;;;;;;;14.02;8.52;;;;;;;;;;4991824;28;20037;-79
2022/10/26 01:55:37;;;;;;;13.25;8.68;;;;;;;;;;4974488;28;20125;-79
2022/10/26 01:58:41;;;;;;;17.80;9.38;;;;;;;;;;4974100;28;20023;-80
2022/10/26 02:01:22;;;;;;;35.97;9.52;;;;;;;;;;4991093;28;20038;-79
2022/10/26 02:04:00;;;;;;;16.98;9.55;;;;;;;;;;4973640;28;20023;-79
2022/10/26 02:06:40;;;;;;;19.98;8.90;;;;;;;;;;4991521;28;20509;-79
2022/10/26 02:09:23;;;;;;;14.77;8.52;;;;;;;;;;4973506;28;20022;-79
2022/10/26 02:11:52;;;;;;;19.92;8.77;;;;;;;;;;4973652;28;20498;-79
2022/10/26 02:14:41;;;;;;;14.00;7.97;;;;;;;;;;4973277;28;20030;-79
2022/10/26 02:17:17;;;;;;;15.13;8.82;;;;;;;;;;4972899;28;20030;-79
2022/10/26 02:19:58;;;;;;;15.05;8.43;;;;;;;;;;4991011;28;20080;-80
2022/10/26 02:22:32;;;;;;;16.23;9.68;;;;;;;;;;4973347;28;20026;-76
2022/10/26 02:25:01;;;;;;;14.23;9.02;;;;;;;;;;4991183;28;20113;-80
2022/10/26 02:27:32;;;;;;;21.17;9.77;;;;;;;;;;4991385;28;20534;-77
2022/10/26 02:29:59;;;;;;;16.87;9.33;;;;;;;;;;4995446;28;20113;-80
2022/10/26 02:32:30;;;;;;;16.17;10.03;;;;;;;;;;4994045;28;20030;-79
2022/10/26 02:34:57;;;;;;;20.95;10.40;;;;;;;;;;4973237;28;20033;-79
2022/10/26 02:37:25;;;;;;;16.08;9.70;;;;;;;;;;4991075;28;20026;-79
2022/10/26 02:39:53;;;;;;;18.50;10.82;;;;;;;;;;4973111;28;20084;-79
2022/10/26 02:42:18;;;;;;;15.68;9.52;;;;;;;;;;4973195;28;20031;-79
2022/10/26 02:44:52;;;;;;;16.37;9.87;;;;;;;;;;4972763;28;20116;-79
2022/10/26 02:47:18;;;;;;;19.50;10.13;;;;;;;;;;4973164;28;20085;-79
2022/10/26 02:49:44;;;;;;;19.13;10.82;;;;;;;;;;4972934;28;20582;-79
2022/10/26 02:52:22;;;;;;;18.02;9.82;;;;;;;;;;4972875;28;20129;-80
2022/10/26 02:54:57;;;;;;;24.83;10.32;;;;;;;;;;4972889;28;20037;-80
2022/10/26 02:57:28;;;;;;;20.90;9.88;;;;;;;;;;4973106;28;20471;-79
2022/10/26 02:59:55;;;;;;;18.77;9.85;;;;;;;;;;4973049;28;20030;-79
2022/10/26 03:02:22;;;;;;;18.63;10.03;;;;;;;;;;4973083;28;20141;-78
2022/10/26 03:04:49;;;;;;;16.27;9.50;;;;;;;;;;4972549;28;20501;-79
2022/10/26 03:07:20;;;;;;;20.80;10.93;;;;;;;;;;4973000;28;20022;-79
2022/10/26 03:09:46;;;;;;;18.83;10.40;;;;;;;;;;4972531;28;20031;-79
2022/10/26 03:12:11;;;;;;;22.83;11.10;;;;;;;;;;4972794;28;20041;-79
2022/10/26 03:14:37;;;;;;;22.77;11.07;;;;;;;;;;4990217;28;20054;-80
2022/10/26 03:17:02;;;;;;;22.53;11.20;;;;;;;;;;4972664;28;20128;-80
2022/10/26 03:19:28;;;;;;;17.43;10.83;;;;;;;;;;4990024;28;20031;-80
2022/10/26 03:21:53;;;;;;;15.30;9.70;;;;;;;;;;4972495;28;20467;-80
2022/10/26 03:24:19;;;;;;;17.67;9.83;;;;;;;;;;4972770;28;20046;-80
2022/10/26 03:26:44;;;;;;;17.67;10.37;;;;;;;;;;4994741;28;20491;-80
2022/10/26 03:29:10;;;;;;;26.07;10.20;;;;;;;;;;4972655;28;20084;-80
2022/10/26 03:31:35;;;;;;;19.20;10.40;;;;;;;;;;4972821;28;20682;-79
2022/10/26 03:34:01;;;;;;;17.70;9.37;;;;;;;;;;4972882;28;20129;-80
2022/10/26 03:36:26;;;;;;;16.57;9.97;;;;;;;;;;4990658;28;20137;-79
2022/10/26 03:38:51;;;;;;;28.73;14.40;;;;;;;;;;4973047;28;20038;-78
2022/10/26 03:41:17;;;;;;;21.73;10.03;;;;;;;;;;4973635;28;20041;-79
2022/10/26 03:43:42;;;;;;;19.90;9.43;;;;;;;;;;4994294;28;20467;-79
2022/10/26 03:46:08;;;;;;;18.97;9.43;;;;;;;;;;4995242;28;20042;-79
2022/10/26 03:48:33;;;;;;;15.90;8.97;;;;;;;;;;4994518;28;20126;-79
2022/10/26 03:50:59;;;;;;;15.93;8.90;;;;;;;;;;4975998;28;20026;-79
2022/10/26 03:53:25;;;;;;;17.90;9.27;;;;;;;;;;4976209;28;20041;-79
2022/10/26 03:55:50;;;;;;;22.37;10.17;;;;;;;;;;4993893;28;20073;-80
2022/10/26 03:58:16;;;;;;;21.00;11.80;;;;;;;;;;4976132;28;20030;-79
2022/10/26 04:00:42;;;;;;;16.17;8.37;;;;;;;;;;4993768;28;20420;-79
2022/10/26 04:03:07;;;;;;;23.93;12.53;;;;;;;;;;4975840;28;20057;-80
2022/10/26 04:05:33;;;;;;;15.83;8.37;;;;;;;;;;4976605;28;20479;-79
2022/10/26 04:08:01;;;;;;;20.87;9.33;;;;;;;;;;4975970;28;20038;-78
2022/10/26 04:10:27;;;;;;;16.27;8.60;;;;;;;;;;4993556;28;20026;-79
2022/10/26 04:12:54;;;;;;;14.80;8.43;;;;;;;;;;4993189;28;20069;-79
2022/10/26 04:15:20;;;;;;;18.90;9.33;;;;;;;;;;4975457;28;20429;-79
2022/10/26 04:17:46;;;;;;;17.37;9.33;;;;;;;;;;4993339;28;20045;-79
2022/10/26 04:20:12;;;;;;;20.13;10.70;;;;;;;;;;4975449;28;20062;-79
2022/10/26 04:22:38;;;;;;;16.83;9.27;;;;;;;;;;4994167;28;20443;-79
2022/10/26 04:25:05;;;;;;;19.07;8.63;;;;;;;;;;4981156;28;20061;-78
2022/10/26 04:27:31;;;;;;;18.23;10.45;;;;;;;;;;4997250;28;20058;-79
2022/10/26 04:29:56;;;;;;;17.73;9.37;;;;;;;;;;4993489;28;20156;-79
2022/10/26 04:32:22;;;;;;;17.00;8.30;;;;;;;;;;4993270;28;20200;-79
2022/10/26 04:34:47;;;;;;;15.20;8.88;;;;;;;;;;4975769;28;20109;-78
2022/10/26 04:37:13;;;;;;;14.27;7.45;;;;;;;;;;4975781;28;20030;-78
2022/10/26 04:39:38;;;;;;;16.00;7.75;;;;;;;;;;4975742;28;20049;-79
2022/10/26 04:42:04;;;;;;;13.77;8.75;;;;;;;;;;4975430;28;20037;-79
2022/10/26 04:44:29;;;;;;;15.40;8.00;;;;;;;;;;4993405;28;20041;-79
2022/10/26 04:46:55;;;;;;;14.70;7.87;;;;;;;;;;4993129;28;20176;-79
2022/10/26 04:49:20;;;;;;;13.63;8.30;;;;;;;;;;4992992;28;20041;-80
2022/10/26 04:51:46;;;;;;;13.83;7.50;;;;;;;;;;4993008;28;20015;-80
2022/10/26 04:54:11;;;;;;;16.40;8.23;;;;;;;;;;4992084;28;20077;-79
2022/10/26 04:56:36;;;;;;;16.20;7.97;;;;;;;;;;4975486;28;20027;-80
2022/10/26 04:59:02;;;;;;;18.10;9.30;;;;;;;;;;4974711;28;20463;-81
2022/10/26 05:01:29;;;;;;;13.80;8.38;;;;;;;;;;4974715;28;20438;-79
2022/10/26 05:03:54;;;;;;;13.23;8.13;;;;;;;;;;4992519;28;20049;-79
2022/10/26 05:06:20;;;;;;;20.27;8.10;;;;;;;;;;4992367;28;20030;-81
2022/10/26 05:08:46;;;;;;;15.80;8.53;;;;;;;;;;4975030;28;20022;-80
2022/10/26 05:11:12;;;;;;;19.00;8.57;;;;;;;;;;4974791;28;20030;-79
2022/10/26 05:13:37;;;;;;;13.50;8.13;;;;;;;;;;4992954;28;20041;-79
2022/10/26 05:16:03;;;;;;;19.57;9.93;;;;;;;;;;4974751;28;20100;-80
2022/10/26 05:18:28;;;;;;;13.33;8.27;;;;;;;;;;4993264;28;20101;-79
2022/10/26 05:20:54;;;;;;;17.63;8.73;;;;;;;;;;4975310;28;20034;-80
2022/10/26 05:23:20;;;;;;;17.37;8.50;;;;;;;;;;4971993;28;20109;-76
2022/10/26 05:25:46;;;;;;;18.43;8.27;;;;;;;;;;4998608;28;20026;-78
2022/10/26 05:28:13;;;;;;;17.27;8.47;;;;;;;;;;4972963;28;20069;-78
2022/10/26 05:30:40;;;;;;;16.23;8.77;;;;;;;;;;4974182;28;20096;-79
2022/10/26 05:33:11;;;;;;;26.37;9.23;;;;;;;;;;4973734;28;20026;-80
2022/10/26 05:35:37;;;;;;;14.53;8.13;;;;;;;;;;4972200;28;20080;-78
2022/10/26 05:38:07;;;;;;;14.23;7.93;;;;;;;;;;4957027;28;20129;-79
2022/10/26 05:40:33;;;;;;;14.63;8.33;;;;;;;;;;4975282;28;20184;-79
2022/10/26 05:43:00;;;;;;;15.80;8.38;;;;;;;;;;4973906;28;20125;-80
2022/10/26 05:45:25;;;;;;;16.90;8.10;;;;;;;;;;4973687;28;20049;-79
2022/10/26 05:47:51;;;;;;;17.30;8.23;;;;;;;;;;4991553;28;20479;-79
2022/10/26 05:50:16;;;;;;;13.90;7.47;;;;;;;;;;4973383;28;20027;-79
2022/10/26 05:52:46;;;;;;;14.80;8.05;;;;;;;;;;4973669;28;20349;-79
2022/10/26 05:55:15;;;;;;;15.82;6.72;;;;;;;;;;4990904;28;20034;-79
2022/10/26 05:57:41;;;;;;;17.35;7.22;;;;;;;;;;4973918;28;20045;-80
2022/10/26 06:00:18;;;;;;;13.37;6.90;;;;;;;;;;4973302;28;20466;-79
2022/10/26 06:02:49;;;;;;;12.38;7.85;;;;;;;;;;4958989;28;20121;-79
2022/10/26 06:05:22;;;;;;;15.95;8.40;;;;;;;;;;4972829;28;20506;-81
2022/10/26 06:07:47;;;;;;;10.43;7.18;;;;;;;;;;4991205;28;20026;-81
2022/10/26 06:10:13;;;;;;;11.80;8.02;;;;;;;;;;4990757;28;20490;-80
2022/10/26 06:12:39;;;;;;;14.00;7.18;;;;;;;;;;4968207;28;20027;-81
2022/10/26 06:15:05;;;;;;;14.68;7.43;;;;;;;;;;4972301;28;20494;-79
2022/10/26 06:17:33;;;;;;;12.35;6.63;;;;;;;;;;4985182;28;20139;-78
2022/10/26 06:20:23;;;;;;;11.32;7.25;;;;;;;;;;4971750;28;20109;-80
2022/10/26 06:23:12;;;;;;;10.68;6.60;;;;;;;;;;5000737;28;20757;-80
2022/10/26 06:25:50;;;;;;;11.50;6.20;;;;;;;;;;4984322;28;20030;-80
2022/10/26 06:28:22;;;;;;;14.23;5.78;;;;;;;;;;4988957;28;20150;-79
2022/10/26 06:30:47;;;;;;;13.52;7.15;;;;;;;;;;4978467;28;20066;-80
2022/10/26 06:33:14;;;;;;;16.00;6.85;;;;;;;;;;4991440;28;20092;-80
2022/10/26 06:35:39;;;;;;;16.35;7.28;;;;;;;;;;4995873;28;21255;-78
2022/10/26 06:38:15;;;;;;;12.23;6.57;;;;;;;;;;4973071;28;20042;-80
2022/10/26 06:40:44;;;;;;;10.82;7.32;;;;;;;;;;4992759;28;20045;-79
2022/10/26 06:43:15;;;;;;;14.50;6.68;;;;;;;;;;4967852;28;20516;-77
2022/10/26 06:45:45;;;;;;;15.88;6.78;;;;;;;;;;4973389;28;20066;-79
2022/10/26 06:48:18;;;;;;;13.15;6.78;;;;;;;;;;4975565;28;20204;-79
2022/10/26 06:50:54;;;;;;;12.43;6.82;;;;;;;;;;4970653;28;20161;-79
2022/10/26 06:54:00;;;;;;;10.43;6.30;;;;;;;;;;4974346;28;20037;-78
2022/10/26 06:56:26;;;;;;;12.23;6.72;;;;;;;;;;4991488;28;20115;-81
2022/10/26 06:58:55;;;;;;;9.93;6.40;;;;;;;;;;4969264;28;20029;-80
2022/10/26 07:01:20;;;;;;;11.35;6.63;;;;;;;;;;4957890;28;20038;-81
2022/10/26 07:03:45;;;;;;;12.57;6.43;;;;;;;;;;4976917;28;20073;-81
2022/10/26 07:06:16;;;;;;;9.27;5.90;;;;;;;;;;4976796;28;20042;-79
2022/10/26 07:08:42;;;;;;;12.35;5.80;;;;;;;;;;4976182;28;20073;-79
2022/10/26 07:11:08;;;;;;;15.23;10.88;;;;;;;;;;4973429;28;20080;-77
2022/10/26 07:13:34;;;;;;;10.65;7.65;;;;;;;;;;4995800;28;20022;-81
2022/10/26 07:16:00;;;;;;;12.80;6.68;;;;;;;;;;4977066;28;20518;-81
2022/10/26 07:18:26;;;;;;;10.45;6.32;;;;;;;;;;4993006;28;20033;-80
2022/10/26 07:20:52;;;;;;;12.55;6.57;;;;;;;;;;4975149;28;20026;-78
2022/10/26 07:23:18;;;;;;;13.70;7.63;;;;;;;;;;4996093;28;20026;-79
2022/10/26 07:25:47;;;;;;;12.88;6.53;;;;;;;;;;4989497;28;20042;-80
2022/10/26 07:28:13;;;;;;;14.05;8.65;;;;;;;;;;4976395;28;20051;-81
2022/10/26 07:30:44;;;;;;;14.52;7.70;;;;;;;;;;4967290;28;20565;-79
2022/10/26 07:33:12;;;;;;;11.85;6.93;;;;;;;;;;4968012;28;20463;-80
2022/10/26 07:35:38;;;;;;;13.77;6.47;;;;;;;;;;4972466;28;20039;-81
2022/10/26 07:38:04;;;;;;;17.58;6.82;;;;;;;;;;4966606;28;20042;-80
2022/10/26 07:40:30;;;;;;;11.93;5.65;;;;;;;;;;4969388;28;20537;-80
2022/10/26 07:42:57;;;;;;;12.88;6.38;;;;;;;;;;4973881;28;20047;-81
2022/10/26 07:45:23;;;;;;;11.95;6.30;;;;;;;;;;4974994;28;20455;-80
2022/10/26 07:47:49;;;;;;;13.18;6.50;;;;;;;;;;4969423;28;20443;-78
2022/10/26 07:50:15;;;;;;;12.38;7.20;;;;;;;;;;4966700;28;20042;-80
2022/10/26 07:52:42;;;;;;;9.07;5.82;;;;;;;;;;4974432;28;20241;-79
2022/10/26 07:55:09;;;;;;;15.77;6.50;;;;;;;;;;4974447;28;20046;-77
2022/10/26 07:57:35;;;;;;;11.63;6.35;;;;;;;;;;4962476;28;20117;-80
2022/10/26 08:00:00;;;;;;;12.30;6.72;;;;;;;;;;4971782;28;20067;-78
2022/10/26 08:02:26;;;;;;;14.88;6.70;;;;;;;;;;4971355;28;20600;-80
2022/10/26 08:04:51;;;;;;;15.70;6.80;;;;;;;;;;4966937;28;20429;-79
2022/10/26 08:07:17;;;;;;;13.57;6.85;;;;;;;;;;4969867;28;20058;-79
2022/10/26 08:09:42;;;;;;;12.02;7.25;;;;;;;;;;4970191;28;20694;-79
2022/10/26 08:12:08;;;;;;;8.90;5.88;;;;;;;;;;4972812;28;20035;-81
2022/10/26 08:14:33;;;;;;;16.27;7.45;;;;;;;;;;4974898;28;20611;-79
2022/10/26 08:16:59;;;;;;;14.10;7.60;;;;;;;;;;4967943;28;20795;-79
2022/10/26 08:19:25;;;;;;;12.07;6.50;;;;;;;;;;4952682;28;20047;-81
2022/10/26 08:21:50;;;;;;;12.23;6.47;;;;;;;;;;4969443;28;20081;-80
2022/10/26 08:24:16;;;;;;;9.50;6.55;;;;;;;;;;4972759;28;20026;-78
2022/10/26 08:26:41;;;;;;;15.52;6.70;;;;;;;;;;4970949;28;20453;-80
2022/10/26 08:29:07;;;;;;;10.70;6.85;;;;;;;;;;4967549;28;20034;-77
2022/10/26 08:31:33;;;;;;;9.27;5.95;;;;;;;;;;4975321;28;20031;-81
2022/10/26 08:34:00;;;;;;;11.07;6.90;;;;;;;;;;4976590;28;20030;-82
2022/10/26 08:36:27;;;;;;;11.18;6.78;;;;;;;;;;4976899;28;20031;-80
2022/10/26 08:38:52;;;;;;;18.40;7.18;;;;;;;;;;4973145;28;20486;-80
2022/10/26 08:41:44;;;;;;;14.20;6.57;;;;;;;;;;4974729;28;20038;-81
2022/10/26 08:44:39;;;;;;;12.65;6.78;;;;;;;;;;4975380;28;20679;-78
2022/10/26 08:47:16;;;;;;;10.85;5.85;;;;;;;;;;4973496;28;20185;-78
2022/10/26 08:50:08;;;;;;;15.45;7.30;;;;;;;;;;4970376;28;20030;-79
2022/10/26 08:53:00;;;;;;;10.00;6.43;;;;;;;;;;4971724;28;20041;-79
2022/10/26 08:55:31;;;;;;;9.27;5.90;;;;;;;;;;4975649;28;20038;-81
2022/10/26 08:58:00;;;;;;;14.57;6.78;;;;;;;;;;4978886;28;20190;-82
2022/10/26 09:00:29;;;;;;;15.35;7.28;;;;;;;;;;4977501;28;20086;-80
2022/10/26 09:02:55;;;;;;;14.00;6.47;;;;;;;;;;4974482;28;20058;-80
2022/10/26 09:06:11;;;;;;;12.88;6.78;;;;;;;;;;4973058;28;20150;-81
2022/10/26 09:08:58;;;;;;;16.75;7.25;;;;;;;;;;4943925;28;20057;-83
2022/10/26 09:11:59;;;;;;;12.85;7.20;;;;;;;;;;4970484;28;20487;-80
2022/10/26 09:14:27;;;;;;;12.40;7.78;;;;;;;;;;4969914;28;20047;-80
2022/10/26 09:17:07;;;;;;;12.50;6.47;;;;;;;;;;4972893;28;20035;-81
2022/10/26 09:19:53;;;;;;;16.00;7.40;;;;;;;;;;4972550;28;20035;-80
2022/10/26 09:22:41;;;;;;;11.00;7.10;;;;;;;;;;4973595;28;20039;-83
2022/10/26 09:25:33;;;;;;;12.55;7.07;;;;;;;;;;4974456;28;20026;-84
2022/10/26 09:28:01;;;;;;;11.65;6.20;;;;;;;;;;4973213;28;20043;-82
2022/10/26 09:30:29;;;;;;;13.90;7.60;;;;;;;;;;4973482;28;20419;-81
2022/10/26 09:32:58;;;;;;;11.98;6.90;;;;;;;;;;4970875;28;20031;-78
2022/10/26 09:35:49;;;;;;;19.55;6.88;;;;;;;;;;4971457;28;20022;-80
2022/10/26 09:38:22;;;;;;;12.30;6.40;;;;;;;;;;4978545;28;20178;-79
2022/10/26 09:41:24;;;;;;;12.48;7.30;;;;;;;;;;4969472;28;20070;-82
2022/10/26 09:43:56;;;;;;;13.25;6.68;;;;;;;;;;4943728;28;20058;-81
2022/10/26 09:46:35;;;;;;;10.82;6.53;;;;;;;;;;4976998;28;20474;-79
2022/10/26 09:49:06;;;;;;;11.50;5.82;;;;;;;;;;4969492;28;20030;-83
2022/10/26 09:51:36;;;;;;;15.98;7.28;;;;;;;;;;4969848;28;20108;-81
2022/10/26 09:54:11;;;;;;;14.35;7.22;;;;;;;;;;4970955;28;20050;-79
2022/10/26 09:56:37;;;;;;;12.45;7.10;;;;;;;;;;4976125;28;20058;-83
2022/10/26 09:59:04;;;;;;;10.35;6.22;;;;;;;;;;4972770;28;20077;-83
2022/10/26 10:01:34;;;;;;;14.90;8.10;;;;;;;;;;4967164;28;20034;-80
2022/10/26 10:04:18;;;;;;;18.38;7.38;;;;;;;;;;4972112;28;20034;-81
2022/10/26 10:07:08;;;;;;;12.45;7.32;;;;;;;;;;4974761;28;20379;-78
2022/10/26 10:09:34;;;;;;;15.43;7.22;;;;;;;;;;4976185;28;20069;-81
2022/10/26 10:12:02;;;;;;;22.63;9.70;;;;;;;;;;4975506;28;20023;-81
2022/10/26 10:14:32;;;;;;;20.90;9.05;;;;;;;;;;4974069;28;20416;-79
2022/10/26 10:17:02;;;;;;;19.08;7.95;;;;;;;;;;4977489;28;20022;-80
2022/10/26 10:19:30;;;;;;;24.70;8.13;;;;;;;;;;4972724;28;20042;-81
2022/10/26 10:21:59;;;;;;;11.55;7.97;;;;;;;;;;4972086;28;20715;-80
2022/10/26 10:24:32;;;;;;;16.05;8.48;;;;;;;;;;4958280;28;20038;-80
2022/10/26 10:27:16;;;;;;;18.25;8.23;;;;;;;;;;4971628;28;20042;-82
2022/10/26 10:29:46;;;;;;;16.73;8.20;;;;;;;;;;4970281;28;20031;-82
2022/10/26 10:32:20;;;;;;;18.90;9.38;;;;;;;;;;4974829;28;20065;-78
2022/10/26 10:34:55;;;;;;;16.20;8.55;;;;;;;;;;4972824;28;20058;-82
2022/10/26 10:37:33;;;;;;;15.88;7.65;;;;;;;;;;4954690;28;20042;-82
2022/10/26 10:40:16;;;;;;;17.23;8.13;;;;;;;;;;4969728;28;20390;-84
2022/10/26 10:42:44;;;;;;;10.73;6.85;;;;;;;;;;4975356;28;20030;-81
2022/10/26 10:45:25;;;;;;;18.42;6.50;;;;;;;;;;4974517;28;20054;-81
2022/10/26 10:48:19;;;;;;;17.23;6.60;;;;;;;;;;4977075;28;20042;-80
2022/10/26 10:50:59;;;;;;;14.20;6.25;;;;;;;;;;4968493;28;20038;-82
2022/10/26 10:53:36;;;;;;;9.13;5.68;;;;;;;;;;4974564;28;20041;-79
2022/10/26 10:56:10;;;;;;;7.28;4.13;;;;;;;;;;4958733;28;20046;-83
2022/10/26 10:58:50;;;;;;;11.65;4.80;;;;;;;;;;4971888;28;20029;-81
2022/10/26 11:01:21;;;;;;;24.60;11.57;;;;;;;;;;4970195;28;20042;-79
2022/10/26 11:04:25;;;;;;;13.02;6.85;;;;;;;;;;4973161;28;20027;-77
2022/10/26 11:06:53;;;;;;;8.00;3.75;;;;;;;;;;4953583;28;20420;-80
2022/10/26 11:09:27;;;;;;;4.85;3.00;;;;;;;;;;4969957;28;20086;-81
2022/10/26 11:11:56;;;;;;;7.03;3.55;;;;;;;;;;4972972;28;20030;-82
2022/10/26 11:14:39;;;;;;;9.75;4.00;;;;;;;;;;4981081;28;20081;-80
2022/10/26 11:17:30;;;;;;;6.05;4.10;;;;;;;;;;4976814;28;20238;-83
2022/10/26 11:20:08;;;;;;;8.88;4.43;;;;;;;;;;4973774;28;20113;-82
2022/10/26 11:22:44;;;;;;;8.80;4.00;;;;;;;;;;4982503;28;20034;-82
2022/10/26 11:25:29;;;;;;;7.15;3.83;;;;;;;;;;4975017;28;20027;-83
2022/10/26 11:28:17;;;;;;;6.30;3.88;;;;;;;;;;4979596;28;20054;-79
2022/10/26 11:30:53;;;;;;;7.10;3.85;;;;;;;;;;4973159;28;20507;-81
2022/10/26 11:33:24;;;;;;;4.57;3.40;;;;;;;;;;4960120;28;20030;-80
2022/10/26 11:36:04;;;;;;;10.65;3.95;;;;;;;;;;4976574;28;20069;-80
2022/10/26 11:38:38;;;;;;;11.65;5.15;;;;;;;;;;4975817;28;20038;-82
2022/10/26 11:41:29;;;;;;;7.05;4.03;;;;;;;;;;4973998;28;20070;-80
2022/10/26 11:44:21;;;;;;;8.10;4.20;;;;;;;;;;4973792;28;20025;-81
2022/10/26 11:46:53;;;;;;;6.85;3.95;;;;;;;;;;4970908;28;20113;-77
2022/10/26 11:49:46;;;;;;;10.25;5.25;;;;;;;;;;4969318;28;20027;-80
2022/10/26 11:52:29;;;;;;;10.38;3.53;;;;;;;;;;4972207;28;20088;-79
2022/10/26 11:55:03;;;;;;;11.00;4.20;;;;;;;;;;4968849;28;20100;-79
2022/10/26 11:57:32;;;;;;;6.60;3.95;;;;;;;;;;4970191;28;20038;-80
2022/10/26 12:00:16;;;;;;;12.40;4.00;;;;;;;;;;4954059;28;20034;-79
2022/10/26 12:02:47;;;;;;;7.40;4.10;;;;;;;;;;4976279;28;20022;-79
2022/10/26 12:05:16;;;;;;;14.18;7.43;;;;;;;;;;4980247;28;20035;-79
2022/10/26 12:07:50;;;;;;;15.98;5.38;;;;;;;;;;4976060;28;20395;-80
2022/10/26 12:10:38;;;;;;;11.73;5.22;;;;;;;;;;4956210;28;20046;-78
2022/10/26 12:13:30;;;;;;;15.15;5.57;;;;;;;;;;4971580;28;20094;-81
2022/10/26 12:16:16;;;;;;;10.05;5.22;;;;;;;;;;4971150;28;20287;-80
2022/10/26 12:18:57;;;;;;;10.35;5.63;;;;;;;;;;4972210;28;20026;-81
2022/10/26 12:21:28;;;;;;;14.70;5.55;;;;;;;;;;4951684;28;20072;-81
2022/10/26 12:23:59;;;;;;;10.82;7.10;;;;;;;;;;4972089;28;20357;-79
2022/10/26 12:26:27;;;;;;;18.45;6.07;;;;;;;;;;4969431;28;20053;-79
2022/10/26 12:29:02;;;;;;;8.05;6.05;;;;;;;;;;4980973;28;20068;-79
2022/10/26 12:31:36;;;;;;;10.52;5.90;;;;;;;;;;4991488;28;20033;-78
2022/10/26 12:34:13;;;;;;;20.50;5.15;;;;;;;;;;4974862;28;20045;-80
2022/10/26 12:36:54;;;;;;;16.52;5.45;;;;;;;;;;4975704;28;20053;-80
2022/10/26 12:39:37;;;;;;;16.48;6.03;;;;;;;;;;4977734;28;20034;-80
2022/10/26 12:42:28;;;;;;;14.15;5.88;;;;;;;;;;4974919;28;20034;-80
2022/10/26 12:44:57;;;;;;;15.10;6.57;;;;;;;;;;4981623;28;20017;-80
2022/10/26 12:47:28;;;;;;;11.90;6.00;;;;;;;;;;4974865;28;20042;-81
2022/10/26 12:50:15;;;;;;;9.23;4.57;;;;;;;;;;4975756;28;20065;-79
2022/10/26 12:53:00;;;;;;;14.50;5.88;;;;;;;;;;4962617;28;20038;-81
2022/10/26 12:55:34;;;;;;;7.93;4.15;;;;;;;;;;4976135;28;20249;-81
2022/10/26 12:58:38;;;;;;;8.15;4.05;;;;;;;;;;4993470;28;20034;-79
2022/10/26 13:01:13;;;;;;;11.23;4.85;;;;;;;;;;4974280;28;20037;-81
2022/10/26 13:03:41;;;;;;;10.13;4.97;;;;;;;;;;4978381;28;20030;-80
2022/10/26 13:06:16;;;;;;;13.02;4.57;;;;;;;;;;4989334;28;20041;-80
2022/10/26 13:08:45;;;;;;;8.82;4.80;;;;;;;;;;4977884;28;20525;-80
2022/10/26 13:11:19;;;;;;;16.27;6.75;;;;;;;;;;4980772;28;20061;-81
2022/10/26 13:13:53;;;;;;;8.13;4.35;;;;;;;;;;4977794;28;20470;-80
2022/10/26 13:16:22;;;;;;;9.57;4.50;;;;;;;;;;4958687;28;20125;-80
2022/10/26 13:18:48;;;;;;;11.27;4.40;;;;;;;;;;4994358;28;20462;-79
2022/10/26 13:21:19;;;;;;;6.70;3.50;;;;;;;;;;4979551;28;20034;-80
2022/10/26 13:24:07;;;;;;;16.17;4.43;;;;;;;;;;4976628;28;20041;-82
2022/10/26 13:27:04;;;;;;;7.85;4.15;;;;;;;;;;4977523;28;20260;-83
2022/10/26 13:29:31;;;;;;;12.52;4.43;;;;;;;;;;4993093;28;20057;-76
2022/10/26 13:31:58;;;;;;;12.68;5.10;;;;;;;;;;4999602;28;20018;-78
2022/10/26 13:34:30;;;;;;;7.47;4.38;;;;;;;;;;4981555;28;20026;-78
2022/10/26 13:37:16;;;;;;;;;;;;;;;;;;4992512;28;20034;-79
2022/10/26 13:39:44;;;;;;;8.27;4.95;;;;;;;;;;4972253;28;19952;-78
2022/10/26 13:42:19;;;;;;;13.40;4.55;;;;;;;;;;4976155;28;20109;-81
2022/10/26 13:44:56;;;;;;;16.13;5.65;;;;;;;;;;4981754;28;20028;-78
2022/10/26 13:47:35;;;;;;;6.80;4.30;;;;;;;;;;4978749;28;20128;-78
2022/10/26 13:50:07;;;;;;;14.68;4.68;;;;;;;;;;4973296;28;20443;-80
2022/10/26 13:52:37;;;;;;;;;;;;;;;;;;4959002;28;20041;-79
2022/10/26 13:55:22;;;;;;;9.05;4.70;;;;;;;;;;4995608;28;20012;-81
2022/10/26 13:58:16;;;;;;;10.75;4.03;;;;;;;;;;4976376;28;20041;-81
2022/10/26 14:01:13;;;;;;;9.13;4.57;;;;;;;;;;4977510;28;20052;-81
2022/10/26 14:03:39;;;;;;;14.80;5.40;;;;;;;;;;4996176;28;20122;-80
2022/10/26 14:06:31;;;;;;;15.07;5.10;;;;;;;;;;4978935;28;20045;-81
2022/10/26 14:09:00;;;;;;;17.77;5.20;;;;;;;;;;4967957;28;20193;-81
2022/10/26 14:11:36;;;;;;;12.43;5.10;;;;;;;;;;4964454;28;20389;-79
2022/10/26 14:14:03;;;;;;;10.88;4.30;;;;;;;;;;4984871;28;20132;-82
2022/10/26 14:16:32;;;;;;;9.55;4.13;;;;;;;;;;4976371;28;20030;-81
2022/10/26 14:18:58;;;;;;;13.07;4.68;;;;;;;;;;4984767;28;20121;-78
2022/10/26 14:21:23;;;;;;;7.50;4.53;;;;;;;;;;4987303;28;20084;-80
2022/10/26 14:23:55;;;;;;;22.40;10.63;;;;;;;;;;5000751;28;20109;-78
2022/10/26 14:26:38;;;;;;;8.00;5.05;;;;;;;;;;4972009;28;20514;-78
2022/10/26 14:29:15;;;;;;;10.68;4.95;;;;;;;;;;4988586;28;20113;-85
2022/10/26 14:31:40;;;;;;;19.30;6.63;;;;;;;;;;4984506;28;20041;-83
2022/10/26 14:34:11;;;;;;;9.73;4.68;;;;;;;;;;4997715;28;20035;-82
2022/10/26 14:36:45;;;;;;;13.50;4.32;;;;;;;;;;4974874;28;20029;-82
2022/10/26 14:39:37;;;;;;;8.35;4.57;;;;;;;;;;4974198;28;20029;-84
2022/10/26 14:42:13;;;;;;;12.57;4.60;;;;;;;;;;4973930;28;20022;-82
2022/10/26 14:44:38;;;;;;;10.68;5.38;;;;;;;;;;4957892;28;20093;-83
2022/10/26 14:47:13;;;;;;;13.35;5.35;;;;;;;;;;4974812;28;20026;-83
2022/10/26 14:49:44;;;;;;;13.73;5.72;;;;;;;;;;4974394;28;20052;-82
2022/10/26 14:52:18;;;;;;;13.80;5.50;;;;;;;;;;4979045;28;20188;-83
2022/10/26 14:54:56;;;;;;;12.43;5.68;;;;;;;;;;4974740;28;20060;-81
2022/10/26 14:57:31;;;;;;;13.35;5.47;;;;;;;;;;4971692;28;20347;-82
2022/10/26 15:00:21;;;;;;;23.20;6.07;;;;;;;;;;4972154;28;20029;-83